createdAt,value
2023-05-13T00:00:50.572Z,32.73
2023-05-13T00:01:50.596Z,32.73
2023-05-13T00:02:50.702Z,32.74
2023-05-13T00:03:50.799Z,32.70
2023-05-13T00:04:50.674Z,32.75
2023-05-13T00:05:50.766Z,32.77
2023-05-13T00:06:50.722Z,32.72
2023-05-13T00:07:50.758Z,32.71
2023-05-13T00:08:50.761Z,32.70
2023-05-13T00:09:50.786Z,32.74
2023-05-13T00:10:50.838Z,32.72
2023-05-13T00:11:50.839Z,32.67
2023-05-13T00:12:50.846Z,32.75
2023-05-13T00:13:50.876Z,32.72
2023-05-13T00:14:50.906Z,32.69
2023-05-13T00:15:50.965Z,32.73
2023-05-13T00:16:51.185Z,32.68
2023-05-13T00:17:51.039Z,32.73
2023-05-13T00:18:51.113Z,32.74
2023-05-13T00:19:51.065Z,32.75
2023-05-13T00:20:51.119Z,32.71
2023-05-13T00:21:51.169Z,32.78
2023-05-13T00:22:51.198Z,32.77
2023-05-13T00:23:51.222Z,32.71
2023-05-13T00:24:51.258Z,32.73
2023-05-13T00:25:51.299Z,32.73
2023-05-13T00:26:51.314Z,32.74
2023-05-13T00:27:51.329Z,32.70
2023-05-13T00:28:51.331Z,32.67
2023-05-13T00:29:51.380Z,32.71
2023-05-13T00:30:51.385Z,32.70
2023-05-13T00:31:51.515Z,32.68
2023-05-13T00:32:51.496Z,32.66
2023-05-13T00:33:51.465Z,32.67
2023-05-13T00:34:51.490Z,32.61
2023-05-13T00:35:51.537Z,32.61
2023-05-13T00:36:51.582Z,32.61
2023-05-13T00:37:51.606Z,32.63
2023-05-13T00:38:51.680Z,32.59
2023-05-13T00:39:51.601Z,32.63
2023-05-13T00:40:51.646Z,32.57
2023-05-13T00:41:51.618Z,32.51
2023-05-13T00:42:51.643Z,32.61
2023-05-13T00:43:51.670Z,32.56
2023-05-13T00:44:51.674Z,32.57
2023-05-13T00:45:51.708Z,32.50
2023-05-13T00:46:51.700Z,32.50
2023-05-13T00:47:51.812Z,32.54
2023-05-13T00:48:51.737Z,32.53
2023-05-13T00:49:51.764Z,32.56
2023-05-13T00:50:51.840Z,32.51
2023-05-13T00:51:51.763Z,32.47
2023-05-13T00:52:51.880Z,32.50
2023-05-13T00:53:51.845Z,32.46
2023-05-13T00:54:51.827Z,32.46
2023-05-13T00:55:51.909Z,32.46
2023-05-13T00:56:51.910Z,32.47
2023-05-13T00:57:51.879Z,32.56
2023-05-13T00:58:51.914Z,32.48
2023-05-13T00:59:51.933Z,32.53
2023-05-13T01:00:52.021Z,32.47
2023-05-13T01:01:51.971Z,32.53
2023-05-13T01:02:52.086Z,32.48
2023-05-13T01:03:51.986Z,32.51
2023-05-13T01:04:52.004Z,32.47
2023-05-13T01:05:52.030Z,32.47
2023-05-13T01:06:52.048Z,32.50
2023-05-13T01:07:52.076Z,32.50
2023-05-13T01:08:52.087Z,32.51
2023-05-13T01:09:52.114Z,32.47
2023-05-13T01:10:52.168Z,32.46
2023-05-13T01:11:52.129Z,32.46
2023-05-13T01:12:52.175Z,32.50
2023-05-13T01:13:52.216Z,32.45
2023-05-13T01:14:52.214Z,32.44
2023-05-13T01:15:52.246Z,32.47
2023-05-13T01:16:52.363Z,32.44
2023-05-13T01:17:52.291Z,32.43
2023-05-13T01:18:52.346Z,32.37
2023-05-13T01:19:52.328Z,32.47
2023-05-13T01:20:52.345Z,32.46
2023-05-13T01:21:52.354Z,32.43
2023-05-13T01:22:52.390Z,32.40
2023-05-13T01:23:52.399Z,32.46
2023-05-13T01:24:52.400Z,32.43
2023-05-13T01:25:52.416Z,32.39
2023-05-13T01:26:52.422Z,32.40
2023-05-13T01:27:52.440Z,32.42
2023-05-13T01:28:52.466Z,32.41
2023-05-13T01:29:52.513Z,32.36
2023-05-13T01:30:52.532Z,32.37
2023-05-13T01:31:52.511Z,32.37
2023-05-13T01:32:52.571Z,32.37
2023-05-13T01:33:52.548Z,32.37
2023-05-13T01:34:52.599Z,32.37
2023-05-13T01:35:52.652Z,32.36
2023-05-13T01:36:52.675Z,32.36
2023-05-13T01:37:52.702Z,32.37
2023-05-13T01:38:52.744Z,32.37
2023-05-13T01:39:52.743Z,32.30
2023-05-13T01:40:52.754Z,32.34
2023-05-13T01:41:52.773Z,32.30
2023-05-13T01:42:52.823Z,32.37
2023-05-13T01:43:52.864Z,32.35
2023-05-13T01:44:52.843Z,32.32
2023-05-13T01:45:52.890Z,32.34
2023-05-13T01:46:52.964Z,32.33
2023-05-13T01:47:52.917Z,32.36
2023-05-13T01:48:52.940Z,32.33
2023-05-13T01:49:52.974Z,32.30
2023-05-13T01:50:52.975Z,32.36
2023-05-13T01:51:52.985Z,32.33
2023-05-13T01:52:52.995Z,32.37
2023-05-13T01:53:53.011Z,32.33
2023-05-13T01:54:53.051Z,32.33
2023-05-13T01:55:53.050Z,32.40
2023-05-13T01:56:53.037Z,32.43
2023-05-13T01:57:53.064Z,32.39
2023-05-13T01:58:53.072Z,32.34
2023-05-13T01:59:53.054Z,32.36
2023-05-13T02:00:53.067Z,32.36
2023-05-13T02:01:53.155Z,32.30
2023-05-13T02:02:53.163Z,32.35
2023-05-13T02:03:53.234Z,32.41
2023-05-13T02:04:53.145Z,32.37
2023-05-13T02:05:53.189Z,32.34
2023-05-13T02:06:53.198Z,32.36
2023-05-13T02:07:53.204Z,32.34
2023-05-13T02:08:53.223Z,32.29
2023-05-13T02:09:53.263Z,32.34
2023-05-13T02:10:53.260Z,32.29
2023-05-13T02:11:53.261Z,32.33
2023-05-13T02:12:53.280Z,32.33
2023-05-13T02:13:53.323Z,32.31
2023-05-13T02:14:53.333Z,32.27
2023-05-13T02:15:53.388Z,32.30
2023-05-13T02:16:53.429Z,32.33
2023-05-13T02:17:53.475Z,32.31
2023-05-13T02:18:53.546Z,32.27
2023-05-13T02:19:53.481Z,32.26
2023-05-13T02:20:53.509Z,32.27
2023-05-13T02:21:53.547Z,32.30
2023-05-13T02:22:53.557Z,32.33
2023-05-13T02:23:53.595Z,32.30
2023-05-13T02:24:53.620Z,32.33
2023-05-13T02:25:53.650Z,32.24
2023-05-13T02:26:53.629Z,32.28
2023-05-13T02:27:53.650Z,32.27
2023-05-13T02:28:53.656Z,32.27
2023-05-13T02:29:53.663Z,32.26
2023-05-13T02:30:53.680Z,32.23
2023-05-13T02:31:53.681Z,32.24
2023-05-13T02:32:53.641Z,32.27
2023-05-13T02:33:53.651Z,32.23
2023-05-13T02:34:53.681Z,32.27
2023-05-13T02:35:53.676Z,32.21
2023-05-13T02:36:53.699Z,32.24
2023-05-13T02:37:53.716Z,32.26
2023-05-13T02:38:53.735Z,32.31
2023-05-13T02:39:53.805Z,32.33
2023-05-13T02:40:53.761Z,32.23
2023-05-13T02:41:53.762Z,32.23
2023-05-13T02:42:53.753Z,32.23
2023-05-13T02:43:53.763Z,32.23
2023-05-13T02:44:53.756Z,32.27
2023-05-13T02:45:53.849Z,32.24
2023-05-13T02:46:53.804Z,32.21
2023-05-13T02:47:53.866Z,32.26
2023-05-13T02:48:53.824Z,32.26
2023-05-13T02:49:53.849Z,32.22
2023-05-13T02:50:53.876Z,32.20
2023-05-13T02:51:53.852Z,32.23
2023-05-13T02:52:53.943Z,32.23
2023-05-13T02:53:53.908Z,32.25
2023-05-13T02:54:53.958Z,32.24
2023-05-13T02:55:53.936Z,32.20
2023-05-13T02:56:53.955Z,32.23
2023-05-13T02:57:53.949Z,32.20
2023-05-13T02:58:54.028Z,32.23
2023-05-13T02:59:53.985Z,32.23
2023-05-13T03:00:54.048Z,32.21
2023-05-13T03:01:53.986Z,32.26
2023-05-13T03:02:54.048Z,32.24
2023-05-13T03:03:53.994Z,32.24
2023-05-13T03:04:54.029Z,32.21
2023-05-13T03:05:54.052Z,32.24
2023-05-13T03:06:53.992Z,32.22
2023-05-13T03:07:54.025Z,32.17
2023-05-13T03:08:54.018Z,32.15
2023-05-13T03:09:53.988Z,32.21
2023-05-13T03:10:54.039Z,32.14
2023-05-13T03:11:54.059Z,32.19
2023-05-13T03:12:54.090Z,32.23
2023-05-13T03:13:54.059Z,32.15
2023-05-13T03:14:54.129Z,32.13
2023-05-13T03:15:54.167Z,32.11
2023-05-13T03:16:54.149Z,32.16
2023-05-13T03:17:54.203Z,32.15
2023-05-13T03:18:54.226Z,32.14
2023-05-13T03:19:54.160Z,32.17
2023-05-13T03:20:54.146Z,32.13
2023-05-13T03:21:54.142Z,32.18
2023-05-13T03:22:54.150Z,32.13
2023-05-13T03:23:54.132Z,32.13
2023-05-13T03:24:54.193Z,32.14
2023-05-13T03:25:54.167Z,32.10
2023-05-13T03:26:54.185Z,32.11
2023-05-13T03:27:54.231Z,32.10
2023-05-13T03:28:54.250Z,32.20
2023-05-13T03:29:54.263Z,32.10
2023-05-13T03:30:54.297Z,32.09
2023-05-13T03:31:54.265Z,32.13
2023-05-13T03:32:54.353Z,32.14
2023-05-13T03:33:54.286Z,32.13
2023-05-13T03:34:54.308Z,32.14
2023-05-13T03:35:54.324Z,32.18
2023-05-13T03:36:54.359Z,32.15
2023-05-13T03:37:54.356Z,32.08
2023-05-13T03:38:54.410Z,32.11
2023-05-13T03:39:54.406Z,32.17
2023-05-13T03:40:54.413Z,32.14
2023-05-13T03:41:54.444Z,32.11
2023-05-13T03:42:54.422Z,32.10
2023-05-13T03:43:54.454Z,32.08
2023-05-13T03:44:54.546Z,32.03
2023-05-13T03:45:54.492Z,32.10
2023-05-13T03:46:54.613Z,32.13
2023-05-13T03:47:54.666Z,32.08
2023-05-13T03:48:54.510Z,32.08
2023-05-13T03:49:54.532Z,32.11
2023-05-13T03:50:54.549Z,32.04
2023-05-13T03:51:54.571Z,32.06
2023-05-13T03:52:54.605Z,32.03
2023-05-13T03:53:54.626Z,32.00
2023-05-13T03:54:54.619Z,32.06
2023-05-13T03:55:54.628Z,32.03
2023-05-13T03:56:54.602Z,32.10
2023-05-13T03:57:54.610Z,32.04
2023-05-13T03:58:54.637Z,32.08
2023-05-13T03:59:54.602Z,32.04
2023-05-13T04:00:54.622Z,32.04
2023-05-13T04:01:54.688Z,32.06
2023-05-13T04:02:54.699Z,32.06
2023-05-13T04:03:54.663Z,32.04
2023-05-13T04:04:54.748Z,32.04
2023-05-13T04:05:54.672Z,32.07
2023-05-13T04:06:54.726Z,32.06
2023-05-13T04:07:54.741Z,32.06
2023-05-13T04:08:54.747Z,32.06
2023-05-13T04:09:54.784Z,32.00
2023-05-13T04:10:54.799Z,32.04
2023-05-13T04:11:54.807Z,32.01
2023-05-13T04:12:54.828Z,32.04
2023-05-13T04:13:54.891Z,32.03
2023-05-13T04:14:54.895Z,32.03
2023-05-13T04:15:54.910Z,32.01
2023-05-13T04:16:54.953Z,31.97
2023-05-13T04:17:54.965Z,31.98
2023-05-13T04:18:55.017Z,32.03
2023-05-13T04:19:55.013Z,32.06
2023-05-13T04:20:54.986Z,32.01
2023-05-13T04:21:55.042Z,32.01
2023-05-13T04:22:55.128Z,32.08
2023-05-13T04:23:55.068Z,31.97
2023-05-13T04:24:55.081Z,31.98
2023-05-13T04:25:55.118Z,32.05
2023-05-13T04:26:55.129Z,32.01
2023-05-13T04:27:55.159Z,31.96
2023-05-13T04:28:55.141Z,32.03
2023-05-13T04:29:55.178Z,32.00
2023-05-13T04:30:55.213Z,31.97
2023-05-13T04:31:55.307Z,32.01
2023-05-13T04:32:55.285Z,32.03
2023-05-13T04:33:55.260Z,32.01
2023-05-13T04:34:55.278Z,32.01
2023-05-13T04:35:55.288Z,31.97
2023-05-13T04:36:55.347Z,32.00
2023-05-13T04:37:55.346Z,32.01
2023-05-13T04:38:55.420Z,32.06
2023-05-13T04:39:55.397Z,32.00
2023-05-13T04:40:55.402Z,31.97
2023-05-13T04:41:55.432Z,32.01
2023-05-13T04:42:55.448Z,31.93
2023-05-13T04:43:55.486Z,31.97
2023-05-13T04:44:55.506Z,32.03
2023-05-13T04:45:55.561Z,31.98
2023-05-13T04:46:55.559Z,32.01
2023-05-13T04:47:58.204Z,32.03
2023-05-13T04:48:55.551Z,31.98
2023-05-13T04:49:55.567Z,31.94
2023-05-13T04:50:55.544Z,31.96
2023-05-13T04:51:55.560Z,31.96
2023-05-13T04:52:55.536Z,31.96
2023-05-13T04:53:55.500Z,31.96
2023-05-13T04:54:55.519Z,31.92
2023-05-13T04:55:55.521Z,31.96
2023-05-13T04:56:55.481Z,31.96
2023-05-13T04:57:55.489Z,31.94
2023-05-13T04:58:55.495Z,31.97
2023-05-13T04:59:55.497Z,31.98
2023-05-13T05:00:55.462Z,32.00
2023-05-13T05:01:55.491Z,31.90
2023-05-13T05:02:55.474Z,31.98
2023-05-13T05:03:55.471Z,31.96
2023-05-13T05:04:55.430Z,31.97
2023-05-13T05:05:55.590Z,31.88
2023-05-13T05:06:55.487Z,31.98
2023-05-13T05:07:55.445Z,31.97
2023-05-13T05:08:55.392Z,31.98
2023-05-13T05:09:55.408Z,31.96
2023-05-13T05:10:55.409Z,31.96
2023-05-13T05:11:55.430Z,31.92
2023-05-13T05:12:55.405Z,31.90
2023-05-13T05:13:55.374Z,31.92
2023-05-13T05:14:55.403Z,31.97
2023-05-13T05:15:55.358Z,31.94
2023-05-13T05:16:55.414Z,31.91
2023-05-13T05:17:55.454Z,31.90
2023-05-13T05:18:55.532Z,31.94
2023-05-13T05:19:55.898Z,31.96
2023-05-13T05:20:55.340Z,31.90
2023-05-13T05:21:55.329Z,31.93
2023-05-13T05:22:55.342Z,31.92
2023-05-13T05:23:55.356Z,31.93
2023-05-13T05:24:55.338Z,31.90
2023-05-13T05:26:04.401Z,31.96
2023-05-13T05:26:56.325Z,31.96
2023-05-13T05:27:55.306Z,31.96
2023-05-13T05:28:55.295Z,31.94
2023-05-13T05:29:55.284Z,31.96
2023-05-13T05:30:55.276Z,31.97
2023-05-13T05:31:55.454Z,31.97
2023-05-13T05:32:55.277Z,31.96
2023-05-13T05:33:55.262Z,31.94
2023-05-13T05:34:55.259Z,31.97
2023-05-13T05:35:55.256Z,31.97
2023-05-13T05:36:55.222Z,31.97
2023-05-13T05:37:55.221Z,31.96
2023-05-13T05:38:55.239Z,31.94
2023-05-13T05:39:55.230Z,32.00
2023-05-13T05:40:55.251Z,31.93
2023-05-13T05:41:55.185Z,32.00
2023-05-13T05:42:55.233Z,31.93
2023-05-13T05:43:55.192Z,31.90
2023-05-13T05:44:55.195Z,31.94
2023-05-13T05:45:55.225Z,31.90
2023-05-13T05:46:55.157Z,31.94
2023-05-13T05:47:55.203Z,31.94
2023-05-13T05:48:55.183Z,31.98
2023-05-13T05:49:55.170Z,32.00
2023-05-13T05:50:55.173Z,31.93
2023-05-13T05:51:55.127Z,31.97
2023-05-13T05:52:55.145Z,31.97
2023-05-13T05:53:55.140Z,32.07
2023-05-13T05:54:55.122Z,31.97
2023-05-13T05:55:55.121Z,31.98
2023-05-13T05:56:55.128Z,31.93
2023-05-13T05:57:55.093Z,31.96
2023-05-13T05:58:55.109Z,31.97
2023-05-13T05:59:55.086Z,31.96
2023-05-13T06:00:55.103Z,31.94
2023-05-13T06:01:55.154Z,32.00
2023-05-13T06:02:55.185Z,32.00
2023-05-13T06:03:55.261Z,31.96
2023-05-13T06:04:55.034Z,32.03
2023-05-13T06:05:55.038Z,32.01
2023-05-13T06:06:55.103Z,32.00
2023-05-13T06:07:55.005Z,32.01
2023-05-13T06:08:55.025Z,32.01
2023-05-13T06:09:55.007Z,32.04
2023-05-13T06:10:55.004Z,32.00
2023-05-13T06:11:55.037Z,31.99
2023-05-13T06:12:55.032Z,32.00
2023-05-13T06:13:55.057Z,32.00
2023-05-13T06:14:55.082Z,31.94
2023-05-13T06:15:55.233Z,31.93
2023-05-13T06:16:55.921Z,31.97
2023-05-13T06:17:55.153Z,31.94
2023-05-13T06:18:55.189Z,31.93
2023-05-13T06:19:55.181Z,31.94
2023-05-13T06:20:55.193Z,31.97
2023-05-13T06:21:55.192Z,31.95
2023-05-13T06:22:55.219Z,32.02
2023-05-13T06:23:55.168Z,31.96
2023-05-13T06:24:55.162Z,31.94
2023-05-13T06:25:55.152Z,31.96
2023-05-13T06:26:55.167Z,31.93
2023-05-13T06:27:55.166Z,31.98
2023-05-13T06:28:55.171Z,31.93
2023-05-13T06:29:55.137Z,31.98
2023-05-13T06:30:55.158Z,31.98
2023-05-13T06:31:55.174Z,31.94
2023-05-13T06:33:01.759Z,31.97
2023-05-13T06:33:56.133Z,31.93
2023-05-13T06:34:56.041Z,31.88
2023-05-13T06:35:55.130Z,31.94
2023-05-13T06:36:55.152Z,31.93
2023-05-13T06:37:55.106Z,31.97
2023-05-13T06:38:55.105Z,31.94
2023-05-13T06:39:55.101Z,31.94
2023-05-13T06:40:55.073Z,31.92
2023-05-13T06:41:55.055Z,31.94
2023-05-13T06:42:55.055Z,31.98
2023-05-13T06:43:55.081Z,32.01
2023-05-13T06:44:55.098Z,31.97
2023-05-13T06:45:55.069Z,31.96
2023-05-13T06:46:55.098Z,31.92
2023-05-13T06:47:55.062Z,31.88
2023-05-13T06:48:55.025Z,31.92
2023-05-13T06:49:55.013Z,31.93
2023-05-13T06:50:55.022Z,31.97
2023-05-13T06:51:55.051Z,31.95
2023-05-13T06:52:54.987Z,31.92
2023-05-13T06:53:55.021Z,31.97
2023-05-13T06:54:54.962Z,31.96
2023-05-13T06:55:54.991Z,31.89
2023-05-13T06:56:54.982Z,31.96
2023-05-13T06:57:54.984Z,31.98
2023-05-13T06:58:55.008Z,31.90
2023-05-13T06:59:55.003Z,31.90
2023-05-13T07:00:55.032Z,31.94
2023-05-13T07:01:54.971Z,31.93
2023-05-13T07:02:55.030Z,31.92
2023-05-13T07:05:01.525Z,31.88
2023-05-13T07:06:01.504Z,31.94
2023-05-13T07:07:01.496Z,31.80
2023-05-13T07:08:01.502Z,31.83
2023-05-13T07:09:02.703Z,31.85
2023-05-13T07:10:01.527Z,31.88
2023-05-13T07:11:01.492Z,31.95
2023-05-13T07:12:01.454Z,31.88
2023-05-13T07:13:01.442Z,31.95
2023-05-13T07:14:01.455Z,31.90
2023-05-13T07:15:01.420Z,31.90
2023-05-13T07:16:01.424Z,31.88
2023-05-13T07:17:01.445Z,31.85
2023-05-13T07:18:01.491Z,31.83
2023-05-13T07:19:01.464Z,31.83
2023-05-13T07:20:01.427Z,31.85
2023-05-13T07:21:01.418Z,31.83
2023-05-13T07:22:01.370Z,31.85
2023-05-13T07:23:01.374Z,31.86
2023-05-13T07:24:01.398Z,31.88
2023-05-13T07:25:01.381Z,31.83
2023-05-13T07:26:01.363Z,31.86
2023-05-13T07:27:01.345Z,31.81
2023-05-13T07:28:01.350Z,31.86
2023-05-13T07:29:01.351Z,31.89
2023-05-13T07:30:01.357Z,31.89
2023-05-13T07:31:01.334Z,31.85
2023-05-13T07:32:01.327Z,31.91
2023-05-13T07:33:01.392Z,31.89
2023-05-13T07:34:01.323Z,31.85
2023-05-13T07:35:01.277Z,31.83
2023-05-13T07:36:01.285Z,31.82
2023-05-13T07:37:01.302Z,31.86
2023-05-13T07:38:01.261Z,31.88
2023-05-13T07:39:02.084Z,31.91
2023-05-13T07:40:01.245Z,31.81
2023-05-13T07:41:01.250Z,31.84
2023-05-13T07:42:01.263Z,31.81
2023-05-13T07:43:01.243Z,31.83
2023-05-13T07:44:01.252Z,31.82
2023-05-13T07:45:01.374Z,31.81
2023-05-13T07:46:01.216Z,31.74
2023-05-13T07:47:01.301Z,31.74
2023-05-13T07:48:01.263Z,31.77
2023-05-13T07:49:01.212Z,31.81
2023-05-13T07:50:01.177Z,31.85
2023-05-13T07:51:01.181Z,31.85
2023-05-13T07:52:01.200Z,31.81
2023-05-13T07:53:01.182Z,31.85
2023-05-13T07:54:01.192Z,31.91
2023-05-13T07:55:01.299Z,31.84
2023-05-13T07:56:01.327Z,31.89
2023-05-13T07:57:01.386Z,31.77
2023-05-13T07:58:01.401Z,31.77
2023-05-13T07:59:01.456Z,31.75
2023-05-13T08:00:01.577Z,31.77
2023-05-13T08:01:01.587Z,31.78
2023-05-13T08:02:01.638Z,31.76
2023-05-13T08:03:01.896Z,31.72
2023-05-13T08:04:01.999Z,31.70
2023-05-13T08:05:02.122Z,31.73
2023-05-13T08:06:01.913Z,31.71
2023-05-13T08:07:01.955Z,31.71
2023-05-13T08:08:02.061Z,31.72
2023-05-13T08:09:02.080Z,31.70
2023-05-13T08:10:02.081Z,31.73
2023-05-13T08:11:02.133Z,31.69
2023-05-13T08:12:02.118Z,31.73
2023-05-13T08:13:02.201Z,31.79
2023-05-13T08:14:02.188Z,31.77
2023-05-13T08:15:02.253Z,31.75
2023-05-13T08:16:02.355Z,31.74
2023-05-13T08:17:02.371Z,31.72
2023-05-13T08:18:02.483Z,31.72
2023-05-13T08:19:02.536Z,31.70
2023-05-13T08:20:03.736Z,31.65
2023-05-13T08:21:02.592Z,31.69
2023-05-13T08:22:02.625Z,31.60
2023-05-13T08:23:02.684Z,31.57
2023-05-13T08:24:02.783Z,31.56
2023-05-13T08:25:02.826Z,31.56
2023-05-13T08:26:02.879Z,31.67
2023-05-13T08:27:02.944Z,31.62
2023-05-13T08:28:02.982Z,31.65
2023-05-13T08:29:03.057Z,31.72
2023-05-13T08:30:03.187Z,31.62
2023-05-13T08:31:03.201Z,31.56
2023-05-13T08:32:03.263Z,31.65
2023-05-13T08:33:03.297Z,31.61
2023-05-13T08:34:03.302Z,31.61
2023-05-13T08:35:03.397Z,31.59
2023-05-13T08:36:03.420Z,31.62
2023-05-13T08:37:03.487Z,31.64
2023-05-13T08:38:03.539Z,31.64
2023-05-13T08:39:03.588Z,31.64
2023-05-13T08:40:03.675Z,31.51
2023-05-13T08:41:03.702Z,31.52
2023-05-13T08:42:03.750Z,31.59
2023-05-13T08:43:03.742Z,31.65
2023-05-13T08:44:03.762Z,31.65
2023-05-13T08:45:03.751Z,31.64
2023-05-13T08:46:03.882Z,31.65
2023-05-13T08:47:03.857Z,31.65
2023-05-13T08:48:03.963Z,31.61
2023-05-13T08:49:04.031Z,31.57
2023-05-13T08:50:04.053Z,31.57
2023-05-13T08:51:04.111Z,31.60
2023-05-13T08:52:04.175Z,31.56
2023-05-13T08:53:04.141Z,31.45
2023-05-13T08:54:04.140Z,31.52
2023-05-13T08:55:04.122Z,31.55
2023-05-13T08:56:04.147Z,31.55
2023-05-13T08:57:04.171Z,31.53
2023-05-13T08:58:04.133Z,31.54
2023-05-13T08:59:04.136Z,31.55
2023-05-13T09:00:04.185Z,31.55
2023-05-13T09:01:04.170Z,31.56
2023-05-13T09:02:04.164Z,31.47
2023-05-13T09:03:04.278Z,31.53
2023-05-13T09:04:04.148Z,31.47
2023-05-13T09:05:04.188Z,31.53
2023-05-13T09:06:04.162Z,31.50
2023-05-13T09:07:04.218Z,31.47
2023-05-13T09:08:04.249Z,31.47
2023-05-13T09:09:04.275Z,31.54
2023-05-13T09:10:04.354Z,31.49
2023-05-13T09:11:04.387Z,31.45
2023-05-13T09:12:04.402Z,31.48
2023-05-13T09:13:04.435Z,31.48
2023-05-13T09:14:04.468Z,31.42
2023-05-13T09:15:04.508Z,31.42
2023-05-13T09:16:04.551Z,31.45
2023-05-13T09:17:04.586Z,31.38
2023-05-13T09:18:04.654Z,31.40
2023-05-13T09:19:04.794Z,31.44
2023-05-13T09:20:04.808Z,31.36
2023-05-13T09:21:04.702Z,31.38
2023-05-13T09:22:04.740Z,31.37
2023-05-13T09:23:04.774Z,31.37
2023-05-13T09:24:04.822Z,31.38
2023-05-13T09:25:04.890Z,31.36
2023-05-13T09:26:04.942Z,31.38
2023-05-13T09:27:05.010Z,31.34
2023-05-13T09:28:05.039Z,31.30
2023-05-13T09:29:05.099Z,31.40
2023-05-13T09:30:05.150Z,31.35
2023-05-13T09:31:05.236Z,31.35
2023-05-13T09:32:05.239Z,31.31
2023-05-13T09:33:05.427Z,31.32
2023-05-13T09:34:05.355Z,31.32
2023-05-13T09:35:05.414Z,31.32
2023-05-13T09:36:05.481Z,31.25
2023-05-13T09:37:05.530Z,31.29
2023-05-13T09:38:05.596Z,31.25
2023-05-13T09:39:05.684Z,31.23
2023-05-13T09:40:05.753Z,31.22
2023-05-13T09:41:05.786Z,31.25
2023-05-13T09:42:05.880Z,31.24
2023-05-13T09:43:05.919Z,31.24
2023-05-13T09:44:05.948Z,31.26
2023-05-13T09:45:06.006Z,31.23
2023-05-13T09:46:06.067Z,31.24
2023-05-13T09:47:06.123Z,31.20
2023-05-13T09:48:06.197Z,31.16
2023-05-13T09:49:06.158Z,31.18
2023-05-13T09:50:06.213Z,31.19
2023-05-13T09:51:06.254Z,31.18
2023-05-13T09:52:06.254Z,31.14
2023-05-13T09:53:06.294Z,31.13
2023-05-13T09:54:06.351Z,31.15
2023-05-13T09:55:06.364Z,31.11
2023-05-13T09:56:06.399Z,31.11
2023-05-13T09:57:06.496Z,31.07
2023-05-13T09:58:06.531Z,31.06
2023-05-13T09:59:06.607Z,31.00
2023-05-13T10:00:07.326Z,31.06
2023-05-13T10:01:06.657Z,31.02
2023-05-13T10:02:06.685Z,31.02
2023-05-13T10:03:06.699Z,30.99
2023-05-13T10:04:06.775Z,30.99
2023-05-13T10:05:06.760Z,30.98
2023-05-13T10:06:06.806Z,30.97
2023-05-13T10:07:06.854Z,30.97
2023-05-13T10:08:06.845Z,30.99
2023-05-13T10:09:06.896Z,30.93
2023-05-13T10:10:06.918Z,30.99
2023-05-13T10:11:06.945Z,30.95
2023-05-13T10:12:06.993Z,30.95
2023-05-13T10:13:07.027Z,30.96
2023-05-13T10:14:07.075Z,30.98
2023-05-13T10:15:07.163Z,30.92
2023-05-13T10:16:07.227Z,30.94
2023-05-13T10:17:07.298Z,30.95
2023-05-13T10:18:07.721Z,30.91
2023-05-13T10:19:07.465Z,30.92
2023-05-13T10:20:07.421Z,30.91
2023-05-13T10:21:07.482Z,30.90
2023-05-13T10:22:07.545Z,30.88
2023-05-13T10:23:07.553Z,30.92
2023-05-13T10:24:07.623Z,30.84
2023-05-13T10:25:07.672Z,30.80
2023-05-13T10:26:07.697Z,30.84
2023-05-13T10:27:07.735Z,30.90
2023-05-13T10:28:07.729Z,30.84
2023-05-13T10:29:07.743Z,30.78
2023-05-13T10:30:07.779Z,30.88
2023-05-13T10:31:07.812Z,30.87
2023-05-13T10:32:07.986Z,30.85
2023-05-13T10:33:07.978Z,30.83
2023-05-13T10:34:07.950Z,30.84
2023-05-13T10:35:08.025Z,30.85
2023-05-13T10:36:08.046Z,30.84
2023-05-13T10:37:08.096Z,30.85
2023-05-13T10:38:08.146Z,30.87
2023-05-13T10:39:08.172Z,30.84
2023-05-13T10:40:08.158Z,30.84
2023-05-13T10:41:08.270Z,30.84
2023-05-13T10:42:08.235Z,30.81
2023-05-13T10:43:08.288Z,30.85
2023-05-13T10:44:09.884Z,30.85
2023-05-13T10:45:08.376Z,30.88
2023-05-13T10:46:08.553Z,30.84
2023-05-13T10:47:08.499Z,30.87
2023-05-13T10:48:08.637Z,30.85
2023-05-13T10:49:08.551Z,30.83
2023-05-13T10:50:08.622Z,30.85
2023-05-13T10:51:08.673Z,30.91
2023-05-13T10:52:08.738Z,30.82
2023-05-13T10:53:08.748Z,30.84
2023-05-13T10:54:08.834Z,30.88
2023-05-13T10:55:08.863Z,30.87
2023-05-13T10:56:08.913Z,30.82
2023-05-13T10:57:09.005Z,30.86
2023-05-13T10:58:09.017Z,30.88
2023-05-13T10:59:09.030Z,30.83
2023-05-13T11:00:09.047Z,30.82
2023-05-13T11:01:09.096Z,30.80
2023-05-13T11:02:09.148Z,30.88
2023-05-13T11:03:09.211Z,30.86
2023-05-13T11:04:09.192Z,30.93
2023-05-13T11:05:09.204Z,30.89
2023-05-13T11:06:09.222Z,30.84
2023-05-13T11:07:09.248Z,30.82
2023-05-13T11:08:09.253Z,30.84
2023-05-13T11:09:09.299Z,30.86
2023-05-13T11:10:09.358Z,30.89
2023-05-13T11:11:09.417Z,30.91
2023-05-13T11:12:09.473Z,30.84
2023-05-13T11:13:09.527Z,30.87
2023-05-13T11:14:09.568Z,30.86
2023-05-13T11:15:09.629Z,30.91
2023-05-13T11:16:09.711Z,30.91
2023-05-13T11:17:09.707Z,30.93
2023-05-13T11:18:09.807Z,30.93
2023-05-13T11:19:09.802Z,30.81
2023-05-13T11:20:09.788Z,30.86
2023-05-13T11:21:09.831Z,30.93
2023-05-13T11:22:09.866Z,30.97
2023-05-13T11:23:09.917Z,30.88
2023-05-13T11:24:09.900Z,30.92
2023-05-13T11:25:09.942Z,30.92
2023-05-13T11:26:12.055Z,30.83
2023-05-13T11:27:10.028Z,30.89
2023-05-13T11:28:10.062Z,30.86
2023-05-13T11:29:10.085Z,30.94
2023-05-13T11:30:10.112Z,30.88
2023-05-13T11:31:10.177Z,30.94
2023-05-13T11:32:10.199Z,30.82
2023-05-13T11:33:10.254Z,30.84
2023-05-13T11:34:10.295Z,30.89
2023-05-13T11:35:10.286Z,30.92
2023-05-13T11:36:10.320Z,30.95
2023-05-13T11:37:10.382Z,30.89
2023-05-13T11:38:10.400Z,30.91
2023-05-13T11:39:10.401Z,30.98
2023-05-13T11:40:10.465Z,30.89
2023-05-13T11:41:10.460Z,30.92
2023-05-13T11:42:10.538Z,30.99
2023-05-13T11:43:10.571Z,30.95
2023-05-13T11:44:10.589Z,30.91
2023-05-13T11:45:10.624Z,30.85
2023-05-13T11:46:10.658Z,30.86
2023-05-13T11:47:10.704Z,30.94
2023-05-13T11:48:10.832Z,30.95
2023-05-13T11:49:10.830Z,30.91
2023-05-13T11:50:10.980Z,30.95
2023-05-13T11:51:10.970Z,30.89
2023-05-13T11:52:11.011Z,30.89
2023-05-13T11:53:11.091Z,30.96
2023-05-13T11:54:11.125Z,30.95
2023-05-13T11:55:11.228Z,30.96
2023-05-13T11:56:11.286Z,30.91
2023-05-13T11:57:11.333Z,30.88
2023-05-13T11:58:11.377Z,30.91
2023-05-13T11:59:11.437Z,30.92
2023-05-13T12:00:11.487Z,30.95
2023-05-13T12:01:11.497Z,30.91
2023-05-13T12:02:11.612Z,30.88
2023-05-13T12:03:11.593Z,30.77
2023-05-13T12:04:11.595Z,30.77
2023-05-13T12:05:11.689Z,30.79
2023-05-13T12:06:11.713Z,30.79
2023-05-13T12:07:11.748Z,30.85
2023-05-13T12:08:11.821Z,30.89
2023-05-13T12:09:11.942Z,30.86
2023-05-13T12:10:12.013Z,30.92
2023-05-13T12:11:11.982Z,30.83
2023-05-13T12:12:12.054Z,30.86
2023-05-13T12:13:12.112Z,30.82
2023-05-13T12:14:12.189Z,30.88
2023-05-13T12:15:12.228Z,30.83
2023-05-13T12:16:12.311Z,30.83
2023-05-13T12:17:12.385Z,30.85
2023-05-13T12:18:12.508Z,30.80
2023-05-13T12:19:12.523Z,30.83
2023-05-13T12:20:12.676Z,30.84
2023-05-13T12:21:12.584Z,30.81
2023-05-13T12:22:12.660Z,30.78
2023-05-13T12:23:12.740Z,30.75
2023-05-13T12:24:12.774Z,30.79
2023-05-13T12:25:12.860Z,30.84
2023-05-13T12:26:12.917Z,30.86
2023-05-13T12:27:12.968Z,30.81
2023-05-13T12:28:13.036Z,30.77
2023-05-13T12:29:13.118Z,30.77
2023-05-13T12:30:13.163Z,30.82
2023-05-13T12:31:13.230Z,30.68
2023-05-13T12:32:13.267Z,30.74
2023-05-13T12:33:13.283Z,30.78
2023-05-13T12:34:13.314Z,30.83
2023-05-13T12:35:13.339Z,30.79
2023-05-13T12:36:13.358Z,30.79
2023-05-13T12:37:13.531Z,30.82
2023-05-13T12:38:13.420Z,30.77
2023-05-13T12:39:13.462Z,30.75
2023-05-13T12:40:13.552Z,30.78
2023-05-13T12:41:13.552Z,30.79
2023-05-13T12:42:13.577Z,30.74
2023-05-13T12:43:13.623Z,30.75
2023-05-13T12:44:13.621Z,30.74
2023-05-13T12:45:13.694Z,30.77
2023-05-13T12:46:13.773Z,30.74
2023-05-13T12:47:13.791Z,30.72
2023-05-13T12:48:13.813Z,30.64
2023-05-13T12:49:13.823Z,30.68
2023-05-13T12:50:13.902Z,30.72
2023-05-13T12:51:13.928Z,30.72
2023-05-13T12:52:13.995Z,30.75
2023-05-13T12:53:13.993Z,30.69
2023-05-13T12:54:14.035Z,30.71